createdAt,value
2022-12-15T00:02:20.006Z,33.83
2022-12-15T00:05:05.677Z,33.75
2022-12-15T00:07:52.288Z,32.33
2022-12-15T00:10:38.084Z,34.35
2022-12-15T00:13:30.597Z,33.83
2022-12-15T00:16:16.841Z,31.50
2022-12-15T00:19:02.380Z,32.30
2022-12-15T00:21:49.088Z,35.60
2022-12-15T00:24:34.254Z,33.28
2022-12-15T00:27:20.033Z,30.65
2022-12-15T00:30:05.205Z,27.40
2022-12-15T00:32:50.952Z,28.45
2022-12-15T00:35:36.685Z,29.70
2022-12-15T00:38:33.181Z,29.98
2022-12-15T00:41:01.663Z,30.50
2022-12-15T00:43:33.363Z,28.42
2022-12-15T00:46:21.056Z,28.20
2022-12-15T00:48:48.121Z,28.52
2022-12-15T00:51:16.318Z,29.58
2022-12-15T00:54:02.443Z,30.70
2022-12-15T00:56:48.278Z,29.10
2022-12-15T00:59:33.832Z,29.02
2022-12-15T01:02:21.309Z,28.88
2022-12-15T01:05:06.571Z,28.17
2022-12-15T01:07:52.616Z,30.15
2022-12-15T01:10:38.434Z,28.58
2022-12-15T01:13:24.196Z,30.73
2022-12-15T01:16:10.608Z,27.17
2022-12-15T01:18:55.854Z,28.63
2022-12-15T01:21:25.261Z,26.95
2022-12-15T01:23:52.721Z,28.83
2022-12-15T01:26:20.329Z,30.38
2022-12-15T01:28:46.961Z,29.17
2022-12-15T01:31:14.911Z,28.55
2022-12-15T01:33:43.440Z,27.88
2022-12-15T01:36:11.081Z,28.02
2022-12-15T01:38:38.224Z,30.10
2022-12-15T01:41:08.031Z,28.77
2022-12-15T01:43:37.725Z,28.38
2022-12-15T01:46:18.319Z,29.63
2022-12-15T01:48:48.053Z,28.65
2022-12-15T01:51:24.785Z,28.70
2022-12-15T01:54:17.790Z,28.08
2022-12-15T01:56:48.680Z,28.05
2022-12-15T01:59:19.591Z,27.50
2022-12-15T02:01:50.043Z,28.23
2022-12-15T02:04:20.530Z,28.45
2022-12-15T02:06:47.979Z,28.00
2022-12-15T02:09:15.486Z,29.13
2022-12-15T02:12:02.393Z,30.70
2022-12-15T02:14:44.590Z,28.55
2022-12-15T02:17:35.551Z,30.20
2022-12-15T02:20:34.746Z,28.98
2022-12-15T02:23:34.372Z,30.13
2022-12-15T02:26:31.344Z,29.95
2022-12-15T02:29:23.281Z,30.98
2022-12-15T02:31:55.480Z,31.13
2022-12-15T02:34:24.936Z,30.33
2022-12-15T02:36:58.407Z,29.88
2022-12-15T02:39:26.080Z,29.05
2022-12-15T02:41:53.432Z,29.85
2022-12-15T02:44:22.658Z,29.33
2022-12-15T02:47:14.307Z,28.10
2022-12-15T02:49:50.074Z,29.95
2022-12-15T02:52:54.172Z,28.17
2022-12-15T02:55:31.597Z,28.65
2022-12-15T02:58:11.336Z,28.23
2022-12-15T03:00:45.083Z,28.48
2022-12-15T03:03:14.730Z,28.83
2022-12-15T03:05:41.474Z,27.50
2022-12-15T03:08:09.465Z,26.90
2022-12-15T03:10:36.151Z,27.30
2022-12-15T03:13:03.405Z,26.45
2022-12-15T03:15:35.269Z,27.60
2022-12-15T03:18:03.318Z,28.50
2022-12-15T03:20:29.910Z,28.00
2022-12-15T03:22:57.201Z,28.35
2022-12-15T03:25:23.841Z,27.67
2022-12-15T03:27:51.146Z,27.27
2022-12-15T03:30:17.862Z,29.33
2022-12-15T03:32:45.170Z,28.95
2022-12-15T03:35:12.811Z,28.35
2022-12-15T03:37:41.010Z,27.80
2022-12-15T03:40:09.174Z,28.40
2022-12-15T03:42:48.227Z,27.55
2022-12-15T03:45:21.380Z,27.33
2022-12-15T03:47:48.366Z,27.45
2022-12-15T03:50:18.647Z,28.63
2022-12-15T03:52:45.642Z,27.13
2022-12-15T03:55:13.211Z,27.67
2022-12-15T03:57:39.808Z,28.85
2022-12-15T04:00:07.676Z,27.48
2022-12-15T04:02:39.290Z,29.20
2022-12-15T04:05:07.069Z,27.95
2022-12-15T04:07:33.665Z,28.17
2022-12-15T04:10:01.040Z,27.52
2022-12-15T04:12:27.735Z,27.27
2022-12-15T04:14:54.956Z,27.42
2022-12-15T04:17:21.573Z,28.23
2022-12-15T04:20:07.257Z,29.85
2022-12-15T04:22:33.901Z,29.00
2022-12-15T04:25:19.289Z,28.35
2022-12-15T04:28:04.689Z,29.33
2022-12-15T04:30:50.650Z,30.27
2022-12-15T04:33:36.445Z,31.23
2022-12-15T04:36:22.997Z,31.23
2022-12-15T04:39:08.704Z,30.45
2022-12-15T04:41:54.117Z,31.20
2022-12-15T04:44:40.021Z,32.58
2022-12-15T04:47:25.593Z,31.88
2022-12-15T04:50:11.448Z,30.48
2022-12-15T04:52:56.949Z,30.92
2022-12-15T04:55:42.687Z,30.30
2022-12-15T04:58:28.586Z,32.22
2022-12-15T05:01:17.319Z,32.25
2022-12-15T05:04:02.996Z,33.53
2022-12-15T05:06:48.330Z,31.08
2022-12-15T05:09:34.141Z,31.70
2022-12-15T05:12:19.412Z,31.80
2022-12-15T05:15:05.115Z,34.65
2022-12-15T05:17:50.414Z,31.73
2022-12-15T05:20:36.331Z,33.22
2022-12-15T05:23:21.711Z,31.58
2022-12-15T05:26:07.596Z,33.47
2022-12-15T05:28:53.481Z,34.42
2022-12-15T05:31:38.872Z,32.47
2022-12-15T05:34:07.199Z,30.13
2022-12-15T05:36:33.803Z,31.48
2022-12-15T05:39:01.037Z,33.15
2022-12-15T05:41:27.626Z,32.47
2022-12-15T05:43:54.882Z,32.80
2022-12-15T05:46:21.890Z,35.08
2022-12-15T05:48:48.847Z,36.05
2022-12-15T05:51:16.190Z,35.28
2022-12-15T05:53:43.066Z,36.85
2022-12-15T05:56:13.092Z,36.67
2022-12-15T05:58:45.136Z,35.63
2022-12-15T06:01:18.097Z,32.53
2022-12-15T06:03:44.931Z,33.38
2022-12-15T06:06:13.253Z,33.88
2022-12-15T06:08:42.037Z,33.75
2022-12-15T06:11:12.686Z,34.25
2022-12-15T06:13:39.930Z,33.78
2022-12-15T06:16:18.895Z,32.70
2022-12-15T06:18:49.955Z,33.35
2022-12-15T06:21:19.993Z,33.33
2022-12-15T06:23:47.911Z,33.78
2022-12-15T06:26:17.513Z,33.10
2022-12-15T06:28:44.595Z,32.15
2022-12-15T06:31:13.040Z,32.75
2022-12-15T06:33:40.279Z,30.80
2022-12-15T06:36:13.462Z,30.50
2022-12-15T06:38:43.284Z,31.35
2022-12-15T06:41:13.037Z,32.65
2022-12-15T06:43:40.227Z,31.02
2022-12-15T06:46:09.169Z,30.85
2022-12-15T06:48:35.963Z,31.08
2022-12-15T06:51:05.473Z,30.65
2022-12-15T06:53:32.771Z,30.58
2022-12-15T06:56:07.360Z,33.22
2022-12-15T06:58:34.375Z,32.92
2022-12-15T07:01:08.026Z,32.85
2022-12-15T07:03:36.139Z,31.35
2022-12-15T07:06:06.079Z,31.35
2022-12-15T07:08:40.989Z,34.75
2022-12-15T07:11:12.405Z,33.25
2022-12-15T07:13:40.480Z,32.17
2022-12-15T07:16:08.201Z,32.65
2022-12-15T07:18:34.804Z,34.70
2022-12-15T07:21:04.601Z,32.50
2022-12-15T07:23:53.452Z,34.45
2022-12-15T07:26:18.916Z,31.90
2022-12-15T07:28:45.908Z,32.75
2022-12-15T07:31:12.589Z,34.55
2022-12-15T07:33:39.840Z,34.33
2022-12-15T07:36:08.622Z,34.97
2022-12-15T07:38:35.981Z,32.08
2022-12-15T07:41:08.197Z,33.40
2022-12-15T07:43:35.730Z,35.53
2022-12-15T07:46:04.736Z,34.22
2022-12-15T07:48:32.243Z,35.35
2022-12-15T07:51:08.485Z,35.00
2022-12-15T07:53:38.762Z,37.00
2022-12-15T07:56:08.585Z,36.28
2022-12-15T07:58:36.157Z,36.88
2022-12-15T08:01:06.465Z,35.13
2022-12-15T08:03:34.087Z,37.70
2022-12-15T08:06:06.147Z,35.22
2022-12-15T08:08:34.322Z,34.42
2022-12-15T08:11:06.654Z,36.38
2022-12-15T08:16:22.035Z,34.90
2022-12-15T08:18:48.747Z,35.40
2022-12-15T08:21:16.389Z,35.38
2022-12-15T08:23:43.043Z,36.88
2022-12-15T08:26:12.840Z,39.17
2022-12-15T08:28:40.902Z,38.83
2022-12-15T08:31:13.952Z,40.70
2022-12-15T08:33:41.091Z,36.75
2022-12-15T08:36:10.415Z,35.63
2022-12-15T08:38:38.876Z,37.45
2022-12-15T08:41:10.365Z,35.75
2022-12-15T08:43:41.286Z,34.35
2022-12-15T08:46:14.410Z,35.70
2022-12-15T08:48:41.085Z,35.72
2022-12-15T08:51:08.384Z,34.33
2022-12-15T08:53:35.048Z,35.78
2022-12-15T08:56:04.474Z,35.97
2022-12-15T08:58:31.242Z,37.63
2022-12-15T09:01:17.325Z,37.90
2022-12-15T09:03:48.351Z,37.08
2022-12-15T09:06:20.972Z,35.53
2022-12-15T09:08:50.360Z,34.35
2022-12-15T09:11:17.854Z,33.20
2022-12-15T09:13:45.243Z,33.83
2022-12-15T09:16:15.567Z,35.15
2022-12-15T09:18:45.239Z,32.65
2022-12-15T09:21:13.236Z,33.45
2022-12-15T09:23:40.709Z,34.05
2022-12-15T09:26:13.200Z,33.65
2022-12-15T09:28:40.663Z,34.75
2022-12-15T09:31:17.613Z,34.72
2022-12-15T09:33:45.144Z,32.65
2022-12-15T09:36:13.031Z,33.35
2022-12-15T09:38:41.978Z,35.45
2022-12-15T09:41:14.835Z,34.80
2022-12-15T09:44:14.623Z,36.55
2022-12-15T09:47:18.645Z,34.15
2022-12-15T09:49:52.705Z,35.20
2022-12-15T09:52:33.352Z,34.00
2022-12-15T09:55:02.003Z,35.03
2022-12-15T09:58:09.077Z,36.15
2022-12-15T10:00:45.856Z,34.53
2022-12-15T10:03:40.543Z,33.97
2022-12-15T10:09:24.386Z,34.70
2022-12-15T10:12:07.165Z,34.80
2022-12-15T10:14:45.990Z,33.80
2022-12-15T10:17:16.679Z,34.15
2022-12-15T10:19:55.688Z,33.58
2022-12-15T10:22:35.022Z,33.70
2022-12-15T10:25:20.869Z,35.00
2022-12-15T10:28:05.142Z,33.28
2022-12-15T10:30:33.297Z,32.30
2022-12-15T10:33:20.584Z,33.03
2022-12-15T10:35:49.096Z,33.90
2022-12-15T10:38:37.492Z,33.67
2022-12-15T10:41:20.952Z,35.13
2022-12-15T10:43:50.397Z,32.53
2022-12-15T10:46:20.571Z,31.90
2022-12-15T10:49:10.337Z,33.47
2022-12-15T10:51:44.574Z,31.88
2022-12-15T10:54:13.901Z,34.33
2022-12-15T10:56:57.360Z,35.45
2022-12-15T10:59:25.780Z,35.95
2022-12-15T11:01:52.905Z,36.85
2022-12-15T11:04:38.470Z,41.00
2022-12-15T11:07:14.338Z,46.00
2022-12-15T11:09:41.941Z,45.65
2022-12-15T11:12:42.658Z,48.00
2022-12-15T11:15:24.882Z,49.45
2022-12-15T11:18:26.972Z,50.22
2022-12-15T11:21:02.723Z,37.90
2022-12-15T11:23:46.685Z,54.22
2022-12-15T11:26:28.138Z,53.15
2022-12-15T11:29:00.697Z,53.50
2022-12-15T11:31:43.382Z,53.92
2022-12-15T11:34:22.366Z,55.00
2022-12-15T11:37:36.226Z,53.95
2022-12-15T11:40:28.314Z,53.20
2022-12-15T11:43:16.758Z,54.28
2022-12-15T11:46:18.922Z,54.20
2022-12-15T11:49:39.186Z,54.63
2022-12-15T11:52:30.391Z,53.95
2022-12-15T11:55:17.872Z,54.00
2022-12-15T11:58:22.832Z,55.85
2022-12-15T12:01:23.734Z,52.60
2022-12-15T12:04:21.335Z,55.50
2022-12-15T12:07:04.254Z,54.53
2022-12-15T12:09:39.347Z,54.60
2022-12-15T12:12:17.932Z,56.30
2022-12-15T12:15:05.203Z,55.70
2022-12-15T12:17:43.398Z,55.70
2022-12-15T12:20:54.270Z,58.03
2022-12-15T12:23:52.861Z,57.05
2022-12-15T12:26:26.487Z,55.72
2022-12-15T12:29:07.374Z,59.83
2022-12-15T12:32:04.167Z,59.60
2022-12-15T12:35:30.877Z,58.53
2022-12-15T12:37:50.849Z,57.47
2022-12-15T12:40:40.462Z,61.17
2022-12-15T12:43:13.554Z,59.47
2022-12-15T12:45:50.477Z,60.70
2022-12-15T12:48:34.243Z,58.88
2022-12-15T12:51:18.490Z,58.33
2022-12-15T12:53:45.194Z,58.38
2022-12-15T12:59:37.779Z,58.03
2022-12-15T13:02:45.247Z,57.22
2022-12-15T13:05:33.115Z,58.53
2022-12-15T13:08:05.786Z,61.35
2022-12-15T13:10:36.454Z,58.75
2022-12-15T13:13:31.772Z,60.22
2022-12-15T13:16:21.515Z,62.10
2022-12-15T13:19:14.779Z,59.33
2022-12-15T13:21:42.128Z,60.28
2022-12-15T13:24:27.116Z,61.72
2022-12-15T13:27:09.646Z,60.65
2022-12-15T13:29:54.001Z,60.47
2022-12-15T13:32:33.916Z,59.10
2022-12-15T13:35:14.257Z,61.35
2022-12-15T13:37:50.533Z,59.97
2022-12-15T13:40:38.464Z,58.88
2022-12-15T13:43:05.004Z,59.53
2022-12-15T13:45:38.163Z,61.30
2022-12-15T13:48:20.212Z,60.80
2022-12-15T13:51:21.421Z,59.88
2022-12-15T13:54:00.139Z,62.25
2022-12-15T13:56:46.552Z,60.60
2022-12-15T13:59:34.222Z,62.72
2022-12-15T14:02:00.936Z,59.95
2022-12-15T14:04:28.348Z,61.17
2022-12-15T14:06:57.600Z,60.22
2022-12-15T14:09:39.571Z,64.93
2022-12-15T14:12:11.962Z,65.05
2022-12-15T14:17:15.178Z,60.95
2022-12-15T14:19:44.339Z,61.33
2022-12-15T14:22:30.081Z,62.47
2022-12-15T14:25:20.941Z,60.58
2022-12-15T14:30:36.958Z,60.00
2022-12-15T14:33:09.092Z,60.05
2022-12-15T14:35:55.939Z,61.47
2022-12-15T14:38:34.822Z,62.35
2022-12-15T14:41:04.125Z,60.03
2022-12-15T14:43:38.839Z,60.90
2022-12-15T14:46:22.531Z,58.10
2022-12-15T14:48:57.331Z,59.42
2022-12-15T14:51:26.512Z,58.17
2022-12-15T14:53:54.696Z,61.85
2022-12-15T14:56:29.396Z,57.75
2022-12-15T14:59:05.848Z,57.10
2022-12-15T15:01:56.269Z,57.53
2022-12-15T15:03:06.436Z,34.78
2022-12-15T15:03:10.415Z,59.78
2022-12-15T15:04:32.954Z,63.90
2022-12-15T15:07:02.222Z,61.50
2022-12-15T15:09:38.082Z,61.80
2022-12-15T15:12:23.729Z,61.45
2022-12-15T15:15:01.422Z,62.03
2022-12-15T15:17:50.150Z,60.45
2022-12-15T15:20:21.414Z,58.50
2022-12-15T15:23:08.459Z,62.67
2022-12-15T15:26:06.134Z,60.75
2022-12-15T15:28:41.848Z,62.90
2022-12-15T15:31:30.904Z,65.07
2022-12-15T15:34:01.079Z,61.20
2022-12-15T15:36:38.604Z,62.65
2022-12-15T15:39:13.424Z,58.63
2022-12-15T15:41:40.499Z,59.90
2022-12-15T15:44:13.960Z,59.78
2022-12-15T15:46:48.609Z,59.17
2022-12-15T15:49:18.781Z,58.83
2022-12-15T15:51:45.643Z,57.08
2022-12-15T15:54:17.785Z,59.25
2022-12-15T15:56:44.726Z,60.83
2022-12-15T15:59:16.389Z,59.08
2022-12-15T16:01:45.047Z,58.22
2022-12-15T16:04:12.166Z,61.53
2022-12-15T16:06:43.625Z,60.55
2022-12-15T16:09:15.793Z,59.90
2022-12-15T16:11:43.819Z,62.30
2022-12-15T16:14:15.431Z,61.58
2022-12-15T16:16:43.688Z,61.70
2022-12-15T16:19:12.116Z,61.55
2022-12-15T16:21:40.824Z,61.28
2022-12-15T16:24:15.521Z,75.15
2022-12-15T16:26:48.167Z,72.68
2022-12-15T16:29:16.489Z,71.18
2022-12-15T16:31:45.806Z,70.45
2022-12-15T16:34:14.135Z,65.85
2022-12-15T16:36:41.243Z,65.78
2022-12-15T16:39:33.880Z,62.47
2022-12-15T16:42:01.321Z,62.03
2022-12-15T16:44:29.263Z,61.17
2022-12-15T16:46:57.580Z,62.17
2022-12-15T16:49:24.666Z,64.93
2022-12-15T16:51:53.505Z,62.72
2022-12-15T16:54:25.545Z,63.90
2022-12-15T16:56:54.290Z,67.67
2022-12-15T16:59:33.141Z,64.78
2022-12-15T17:02:02.132Z,64.63
2022-12-15T17:04:29.196Z,63.70
2022-12-15T17:06:56.113Z,60.90
2022-12-15T17:09:25.343Z,65.57
2022-12-15T17:11:52.390Z,65.32
2022-12-15T17:14:21.183Z,65.78
2022-12-15T17:16:47.747Z,67.20
2022-12-15T17:19:20.875Z,66.35
2022-12-15T17:21:50.763Z,62.25
2022-12-15T17:24:20.663Z,64.82
2022-12-15T17:26:47.700Z,63.35
2022-12-15T17:29:19.306Z,64.28
2022-12-15T17:31:46.057Z,65.78
2022-12-15T17:34:30.578Z,64.03
2022-12-15T17:36:59.533Z,64.55
2022-12-15T17:39:27.137Z,64.82
2022-12-15T17:42:02.873Z,67.72
2022-12-15T17:44:37.476Z,65.65
2022-12-15T17:47:07.969Z,65.88
2022-12-15T17:49:37.208Z,69.15
2022-12-15T17:52:24.788Z,69.82
2022-12-15T17:54:51.997Z,67.22
2022-12-15T17:57:19.392Z,75.88
2022-12-15T17:59:46.372Z,73.03
2022-12-15T18:02:14.384Z,76.07
2022-12-15T18:04:42.242Z,74.47
2022-12-15T18:07:21.939Z,73.70
2022-12-15T18:09:50.833Z,72.30
2022-12-15T18:12:23.372Z,75.63
2022-12-15T18:14:50.397Z,82.65
2022-12-15T18:17:17.556Z,88.22
2022-12-15T18:19:44.776Z,74.07
2022-12-15T18:22:15.464Z,79.22
2022-12-15T18:24:42.229Z,81.63
2022-12-15T18:27:26.944Z,83.93
2022-12-15T18:29:54.287Z,80.28
2022-12-15T18:32:24.189Z,78.93
2022-12-15T18:34:51.063Z,78.47
2022-12-15T18:37:20.210Z,79.57
2022-12-15T18:39:48.362Z,76.40
2022-12-15T18:42:18.411Z,79.28
2022-12-15T18:44:56.526Z,75.65
2022-12-15T18:47:25.158Z,72.90
2022-12-15T18:49:51.903Z,75.45
2022-12-15T18:52:26.610Z,83.70
2022-12-15T18:54:55.539Z,86.55
2022-12-15T18:57:32.236Z,85.55
2022-12-15T19:00:15.592Z,81.72
2022-12-15T19:02:43.324Z,84.35
2022-12-15T19:05:27.071Z,81.43
2022-12-15T19:08:10.252Z,83.57
2022-12-15T19:10:45.751Z,83.47
2022-12-15T19:13:17.763Z,85.68
2022-12-15T19:15:45.878Z,83.93
2022-12-15T19:18:41.189Z,85.22
2022-12-15T19:21:37.048Z,85.68
2022-12-15T19:24:06.515Z,80.80
2022-12-15T19:26:33.297Z,82.60
2022-12-15T19:29:00.520Z,82.00
2022-12-15T19:31:27.256Z,79.05
2022-12-15T19:33:54.280Z,80.57
2022-12-15T19:36:23.654Z,76.18
2022-12-15T19:38:54.364Z,76.65
2022-12-15T19:41:21.329Z,76.72
2022-12-15T19:43:48.392Z,74.90
2022-12-15T19:46:20.874Z,76.15
2022-12-15T19:48:48.153Z,74.05
2022-12-15T19:51:21.368Z,76.38
2022-12-15T19:53:48.941Z,75.18
2022-12-15T19:56:22.406Z,73.82
2022-12-15T19:58:50.429Z,79.07
2022-12-15T20:01:19.850Z,80.75
2022-12-15T20:03:49.385Z,79.18
2022-12-15T20:06:25.520Z,80.10
2022-12-15T20:08:55.909Z,80.40
2022-12-15T20:11:29.180Z,81.55
2022-12-15T20:13:56.806Z,79.13
2022-12-15T20:16:24.051Z,77.22
2022-12-15T20:18:53.725Z,81.13
2022-12-15T20:21:22.793Z,84.22
2022-12-15T20:24:13.931Z,85.57
2022-12-15T20:26:41.298Z,75.30
2022-12-15T20:29:25.382Z,78.53
2022-12-15T20:31:52.753Z,73.25
2022-12-15T20:34:20.280Z,75.13
2022-12-15T20:36:47.343Z,75.63
2022-12-15T20:39:27.111Z,79.20
2022-12-15T20:41:54.581Z,76.45
2022-12-15T20:44:23.267Z,75.25
2022-12-15T20:46:50.253Z,74.63
2022-12-15T20:49:20.030Z,74.90
2022-12-15T20:51:47.955Z,74.68
2022-12-15T20:54:18.041Z,74.25
2022-12-15T20:56:45.160Z,72.35
2022-12-15T20:59:12.880Z,74.05
2022-12-15T21:01:39.910Z,70.70
2022-12-15T21:04:28.730Z,70.40
2022-12-15T21:06:56.236Z,69.72
2022-12-15T21:09:24.348Z,70.25
2022-12-15T21:11:54.851Z,72.20
2022-12-15T21:14:23.727Z,70.63
2022-12-15T21:16:50.796Z,69.85
2022-12-15T21:19:21.182Z,72.60
2022-12-15T21:21:52.938Z,74.60
2022-12-15T21:24:25.331Z,72.00
2022-12-15T21:26:52.530Z,76.45
2022-12-15T21:29:23.496Z,73.47
2022-12-15T21:31:50.532Z,72.03
2022-12-15T21:34:18.133Z,71.07
2022-12-15T21:36:49.698Z,69.43
2022-12-15T21:39:31.217Z,69.68
2022-12-15T21:42:00.050Z,68.90
2022-12-15T21:44:27.426Z,70.10
2022-12-15T21:46:54.656Z,71.80
2022-12-15T21:49:22.312Z,75.35
2022-12-15T21:51:55.220Z,70.85
2022-12-15T21:54:30.679Z,69.40
2022-12-15T21:56:58.287Z,72.90
2022-12-15T21:59:28.263Z,78.53
2022-12-15T22:01:55.968Z,79.45
2022-12-15T22:04:34.249Z,75.85
2022-12-15T22:07:01.476Z,77.97
2022-12-15T22:09:28.857Z,73.68
2022-12-15T22:11:56.621Z,73.20
2022-12-15T22:14:31.845Z,73.85
2022-12-15T22:16:59.948Z,77.20
2022-12-15T22:19:27.012Z,78.40
2022-12-15T22:21:53.778Z,79.25
2022-12-15T22:24:21.027Z,76.05
2022-12-15T22:26:47.894Z,77.85
2022-12-15T22:29:21.732Z,75.45
2022-12-15T22:31:50.155Z,73.50
2022-12-15T22:34:20.776Z,70.82
2022-12-15T22:36:48.032Z,73.43
2022-12-15T22:39:15.361Z,68.65
2022-12-15T22:41:44.693Z,69.50
2022-12-15T22:44:16.849Z,69.15
2022-12-15T22:46:43.657Z,68.50
2022-12-15T22:49:17.893Z,66.93
2022-12-15T22:51:44.828Z,64.45
2022-12-15T22:54:26.087Z,67.65
2022-12-15T22:57:03.822Z,65.88
2022-12-15T22:59:34.481Z,66.68
2022-12-15T23:02:02.475Z,67.03
2022-12-15T23:04:30.943Z,68.30
2022-12-15T23:06:59.811Z,65.45
2022-12-15T23:09:27.139Z,66.35
2022-12-15T23:11:54.179Z,64.00
2022-12-15T23:14:41.174Z,63.95
2022-12-15T23:17:08.165Z,62.42
2022-12-15T23:19:35.583Z,63.65
2022-12-15T23:22:02.179Z,62.03
2022-12-15T23:24:29.477Z,60.72
2022-12-15T23:26:56.054Z,61.67
2022-12-15T23:29:23.351Z,60.40
2022-12-15T23:31:49.963Z,59.08
2022-12-15T23:34:17.223Z,61.20
2022-12-15T23:36:43.944Z,62.92
2022-12-15T23:39:11.213Z,59.10
2022-12-15T23:41:37.799Z,58.65
2022-12-15T23:44:05.864Z,61.67
2022-12-15T23:46:32.680Z,62.85
2022-12-15T23:48:59.873Z,65.65
2022-12-15T23:51:26.511Z,63.20
2022-12-15T23:53:53.828Z,60.53
2022-12-15T23:56:24.016Z,62.33
2022-12-15T23:58:56.846Z,59.17
